VTK503 UHHH-ULLI
Flight info
| Callsign | VTK503 |
|---|---|
| Flight time | N/A |
| Altitude | 34000 |
| Route | IVADA4R IVADA L168 LEBNA T541 MOKIT/K0926F360 T541 TURMA G719 THN N742 UHT/K0911F380 T816 AMDEN P979 BEPOL BEPOL1A |
| Aircraft | A35K/H-SDE2E3GHIJ3J4J5LM1ORWXY/LB1D1 |
Departure
| Time | 2026-04-07 21:59 |
|---|---|
| Airport | Khabarovsk Novy Airport (UHHH) |
Arrival
| Time | N/A |
|---|---|
| Airport | Pulkovo Airport (ULLI) |
| Time | Latitude | Longitude | Altitude | Speed | Heading |
|---|---|---|---|---|---|
| 2026-04-07 21:31 | 48.52628 | 135.17355 | 241 ft | 0 kts | 304° |
| 2026-04-07 21:44 | 48.52626 | 135.17360 | 242 ft | 1 kts | 303° |
| 2026-04-07 21:44 | 48.52623 | 135.17366 | 241 ft | 0 kts | 305° |
| 2026-04-07 21:44 | 48.52623 | 135.17365 | 240 ft | 0 kts | 305° |
| 2026-04-07 21:44 | 48.52616 | 135.17382 | 240 ft | 2 kts | 305° |
| 2026-04-07 21:45 | 48.52606 | 135.17402 | 240 ft | 2 kts | 305° |
| 2026-04-07 21:45 | 48.52597 | 135.17422 | 240 ft | 2 kts | 322° |
| 2026-04-07 21:45 | 48.52582 | 135.17432 | 240 ft | 2 kts | 356° |
| 2026-04-07 21:45 | 48.52566 | 135.17427 | 240 ft | 2 kts | 42° |
| 2026-04-07 21:46 | 48.52560 | 135.17418 | 240 ft | 0 kts | 46° |
| 2026-04-07 21:48 | 48.52561 | 135.17420 | 240 ft | 1 kts | 46° |
| 2026-04-07 21:49 | 48.52568 | 135.17431 | 240 ft | 2 kts | 47° |
| 2026-04-07 21:49 | 48.52581 | 135.17453 | 240 ft | 3 kts | 50° |
| 2026-04-07 21:49 | 48.52600 | 135.17484 | 240 ft | 5 kts | 44° |
| 2026-04-07 21:49 | 48.52628 | 135.17523 | 240 ft | 6 kts | 44° |
| 2026-04-07 21:50 | 48.52666 | 135.17559 | 240 ft | 7 kts | 19° |
| 2026-04-07 21:50 | 48.52711 | 135.17547 | 240 ft | 7 kts | 330° |
| 2026-04-07 21:50 | 48.52757 | 135.17530 | 240 ft | 7 kts | 6° |
| 2026-04-07 21:50 | 48.52799 | 135.17567 | 240 ft | 8 kts | 37° |
| 2026-04-07 21:51 | 48.52845 | 135.17622 | 240 ft | 9 kts | 39° |
| 2026-04-07 21:51 | 48.52896 | 135.17687 | 240 ft | 10 kts | 43° |
| 2026-04-07 21:51 | 48.52923 | 135.17779 | 240 ft | 10 kts | 99° |
| 2026-04-07 21:51 | 48.52887 | 135.17871 | 240 ft | 11 kts | 129° |
| 2026-04-07 21:52 | 48.52836 | 135.17960 | 240 ft | 12 kts | 132° |
| 2026-04-07 21:52 | 48.52778 | 135.18052 | 240 ft | 13 kts | 133° |
| 2026-04-07 21:52 | 48.52720 | 135.18152 | 240 ft | 13 kts | 130° |
| 2026-04-07 21:52 | 48.52660 | 135.18268 | 239 ft | 14 kts | 116° |
| 2026-04-07 21:53 | 48.52688 | 135.18399 | 240 ft | 14 kts | 47° |
| 2026-04-07 21:53 | 48.52759 | 135.18503 | 240 ft | 14 kts | 41° |
| 2026-04-07 21:53 | 48.52836 | 135.18607 | 240 ft | 16 kts | 42° |
| 2026-04-07 21:53 | 48.52921 | 135.18723 | 239 ft | 17 kts | 41° |
| 2026-04-07 21:54 | 48.53012 | 135.18847 | 238 ft | 18 kts | 42° |
| 2026-04-07 21:54 | 48.53110 | 135.18980 | 238 ft | 19 kts | 42° |
| 2026-04-07 21:54 | 48.53208 | 135.19115 | 238 ft | 19 kts | 42° |
| 2026-04-07 21:54 | 48.53303 | 135.19245 | 240 ft | 18 kts | 42° |
| 2026-04-07 21:55 | 48.53399 | 135.19376 | 240 ft | 19 kts | 42° |
| 2026-04-07 21:55 | 48.53497 | 135.19509 | 240 ft | 19 kts | 42° |
| 2026-04-07 21:55 | 48.53600 | 135.19649 | 238 ft | 20 kts | 42° |
| 2026-04-07 21:55 | 48.53707 | 135.19794 | 237 ft | 21 kts | 42° |
| 2026-04-07 21:56 | 48.53817 | 135.19943 | 239 ft | 21 kts | 42° |
| 2026-04-07 21:56 | 48.53913 | 135.20056 | 239 ft | 15 kts | 20° |
| 2026-04-07 21:56 | 48.53961 | 135.20106 | 240 ft | 3 kts | 100° |
| 2026-04-07 21:56 | 48.53951 | 135.20113 | 240 ft | 1 kts | 160° |
| 2026-04-07 21:57 | 48.53944 | 135.20108 | 240 ft | 1 kts | 199° |
| 2026-04-07 21:57 | 48.53934 | 135.20096 | 239 ft | 3 kts | 214° |
| 2026-04-07 21:57 | 48.53908 | 135.20065 | 239 ft | 7 kts | 219° |
| 2026-04-07 21:57 | 48.53867 | 135.20010 | 239 ft | 10 kts | 223° |
| 2026-04-07 21:58 | 48.53688 | 135.19766 | 238 ft | 63 kts | 222° |
| 2026-04-07 21:58 | 48.53232 | 135.19149 | 239 ft | 112 kts | 222° |
| 2026-04-07 21:58 | 48.52541 | 135.18204 | 243 ft | 155 kts | 221° |
| 2026-04-07 21:58 | 48.51720 | 135.17112 | 799 ft | 135 kts | 222° |
| 2026-04-07 21:59 | 48.50998 | 135.16176 | 1374 ft | 139 kts | 224° |
| 2026-04-07 21:59 | 48.50224 | 135.15130 | 1585 ft | 158 kts | 226° |
| 2026-04-07 21:59 | 48.49371 | 135.13930 | 1799 ft | 177 kts | 226° |
| 2026-04-07 21:59 | 48.48409 | 135.12586 | 1938 ft | 201 kts | 226° |
| 2026-04-07 22:00 | 48.47321 | 135.11084 | 2168 ft | 222 kts | 225° |
| 2026-04-07 22:00 | 48.46143 | 135.09479 | 2602 ft | 233 kts | 225° |
| 2026-04-07 22:00 | 48.44922 | 135.07820 | 3164 ft | 240 kts | 225° |
| 2026-04-07 22:00 | 48.43681 | 135.06107 | 3767 ft | 243 kts | 228° |
| 2026-04-07 22:01 | 48.42694 | 135.04052 | 4387 ft | 243 kts | 248° |
| 2026-04-07 22:01 | 48.42371 | 135.01580 | 5000 ft | 244 kts | 272° |
| 2026-04-07 22:01 | 48.42831 | 134.99122 | 5637 ft | 248 kts | 297° |
| 2026-04-07 22:01 | 48.44000 | 134.97189 | 6190 ft | 257 kts | 322° |
| 2026-04-07 22:02 | 48.45547 | 134.95877 | 6881 ft | 260 kts | 329° |
| 2026-04-07 22:02 | 48.47170 | 134.94676 | 7575 ft | 261 kts | 329° |
| 2026-04-07 22:02 | 48.48807 | 134.93464 | 8289 ft | 263 kts | 329° |
| 2026-04-07 22:02 | 48.50451 | 134.92224 | 8968 ft | 265 kts | 328° |
| 2026-04-07 22:03 | 48.52101 | 134.90964 | 9683 ft | 267 kts | 328° |
| 2026-04-07 22:03 | 48.53780 | 134.89669 | 10105 ft | 278 kts | 328° |
| 2026-04-07 22:03 | 48.57423 | 134.86832 | 10650 ft | 311 kts | 328° |
| 2026-04-07 22:04 | 48.59399 | 134.85295 | 10930 ft | 327 kts | 329° |
| 2026-04-07 22:04 | 48.61464 | 134.83689 | 11191 ft | 341 kts | 329° |
| 2026-04-07 22:04 | 48.63607 | 134.82022 | 11632 ft | 350 kts | 329° |
| 2026-04-07 22:04 | 48.65774 | 134.80337 | 12250 ft | 352 kts | 329° |
| 2026-04-07 22:05 | 48.67955 | 134.78638 | 12905 ft | 353 kts | 329° |
| 2026-04-07 22:05 | 48.70142 | 134.76933 | 13548 ft | 355 kts | 329° |
| 2026-04-07 22:05 | 48.72344 | 134.75212 | 14060 ft | 357 kts | 329° |
| 2026-04-07 22:05 | 48.74562 | 134.73473 | 14547 ft | 361 kts | 329° |
| 2026-04-07 22:06 | 48.76803 | 134.71716 | 15048 ft | 364 kts | 329° |
| 2026-04-07 22:06 | 48.79061 | 134.69944 | 15568 ft | 367 kts | 329° |
| 2026-04-07 22:06 | 48.81335 | 134.68158 | 16111 ft | 369 kts | 329° |
| 2026-04-07 22:06 | 48.83625 | 134.66357 | 16610 ft | 372 kts | 329° |
| 2026-04-07 22:07 | 48.85934 | 134.64540 | 17115 ft | 376 kts | 330° |
| 2026-04-07 22:07 | 48.88268 | 134.62701 | 17627 ft | 379 kts | 330° |
| 2026-04-07 22:07 | 48.90614 | 134.60850 | 18106 ft | 382 kts | 330° |
| 2026-04-07 22:07 | 48.92987 | 134.58975 | 18530 ft | 385 kts | 330° |
| 2026-04-07 22:08 | 48.95374 | 134.57088 | 18959 ft | 388 kts | 330° |
| 2026-04-07 22:08 | 48.97746 | 134.55211 | 19410 ft | 391 kts | 330° |
| 2026-04-07 22:08 | 49.00169 | 134.53291 | 19865 ft | 394 kts | 330° |
| 2026-04-07 22:08 | 49.02605 | 134.51359 | 20302 ft | 397 kts | 330° |
| 2026-04-07 22:09 | 49.05066 | 134.49405 | 20757 ft | 400 kts | 330° |
| 2026-04-07 22:09 | 49.07536 | 134.47420 | 21215 ft | 402 kts | 328° |
| 2026-04-07 22:09 | 49.09951 | 134.45244 | 21678 ft | 404 kts | 326° |
| 2026-04-07 22:09 | 49.12328 | 134.42933 | 22109 ft | 407 kts | 324° |
| 2026-04-07 22:10 | 49.14700 | 134.40535 | 22561 ft | 410 kts | 324° |
| 2026-04-07 22:10 | 49.17076 | 134.38094 | 23011 ft | 413 kts | 324° |
| 2026-04-07 22:10 | 49.19470 | 134.35628 | 23417 ft | 416 kts | 324° |
| 2026-04-07 22:10 | 49.21880 | 134.33153 | 23792 ft | 419 kts | 324° |
| 2026-04-07 22:11 | 49.24310 | 134.30668 | 24182 ft | 421 kts | 324° |
| 2026-04-07 22:11 | 49.26760 | 134.28170 | 24569 ft | 424 kts | 324° |
| 2026-04-07 22:11 | 49.29220 | 134.25666 | 24948 ft | 426 kts | 324° |
| 2026-04-07 22:11 | 49.31696 | 134.23145 | 25309 ft | 429 kts | 324° |
| 2026-04-07 22:12 | 49.34191 | 134.20603 | 25671 ft | 432 kts | 324° |
| 2026-04-07 22:12 | 49.36699 | 134.18045 | 26030 ft | 434 kts | 324° |
| 2026-04-07 22:12 | 49.39221 | 134.15469 | 26403 ft | 437 kts | 324° |
| 2026-04-07 22:12 | 49.41757 | 134.12874 | 26754 ft | 440 kts | 324° |
| 2026-04-07 22:13 | 49.44306 | 134.10263 | 27115 ft | 442 kts | 324° |
| 2026-04-07 22:13 | 49.46875 | 134.07628 | 27441 ft | 445 kts | 324° |
| 2026-04-07 22:13 | 49.49458 | 134.04982 | 27767 ft | 448 kts | 324° |
| 2026-04-07 22:13 | 49.52056 | 134.02320 | 28100 ft | 450 kts | 324° |
| 2026-04-07 22:14 | 49.54671 | 133.99637 | 28429 ft | 452 kts | 324° |
| 2026-04-07 22:14 | 49.57293 | 133.96942 | 28734 ft | 455 kts | 324° |
| 2026-04-07 22:14 | 49.59937 | 133.94221 | 29031 ft | 458 kts | 324° |
| 2026-04-07 22:14 | 49.62586 | 133.91491 | 29345 ft | 459 kts | 324° |
| 2026-04-07 22:15 | 49.65240 | 133.88753 | 29763 ft | 459 kts | 324° |
| 2026-04-07 22:15 | 49.67893 | 133.86013 | 30141 ft | 457 kts | 324° |
| 2026-04-07 22:15 | 49.70529 | 133.83287 | 30521 ft | 456 kts | 324° |
| 2026-04-07 22:15 | 49.73163 | 133.80559 | 30870 ft | 455 kts | 324° |
| 2026-04-07 22:16 | 49.75791 | 133.77833 | 31189 ft | 455 kts | 324° |
| 2026-04-07 22:16 | 49.78421 | 133.75101 | 31548 ft | 454 kts | 324° |
| 2026-04-07 22:16 | 49.81037 | 133.72381 | 31886 ft | 453 kts | 324° |
| 2026-04-07 22:16 | 49.83655 | 133.69655 | 32191 ft | 453 kts | 324° |
| 2026-04-07 22:17 | 49.86263 | 133.66935 | 32494 ft | 453 kts | 324° |
| 2026-04-07 22:17 | 49.88871 | 133.64211 | 32803 ft | 452 kts | 324° |
| 2026-04-07 22:17 | 49.91485 | 133.61478 | 33103 ft | 451 kts | 324° |
| 2026-04-07 22:17 | 49.94085 | 133.58755 | 33390 ft | 451 kts | 324° |
| 2026-04-07 22:18 | 49.96685 | 133.56030 | 33609 ft | 452 kts | 324° |
| 2026-04-07 22:18 | 49.99303 | 133.53280 | 33635 ft | 457 kts | 324° |
| 2026-04-07 22:18 | 50.04588 | 133.47720 | 33639 ft | 459 kts | 324° |
| 2026-04-07 22:19 | 50.09869 | 133.42154 | 33634 ft | 459 kts | 324° |
| 2026-04-07 22:19 | 50.15107 | 133.36572 | 33627 ft | 459 kts | 323° |
| 2026-04-07 22:20 | 50.20363 | 133.30901 | 33623 ft | 460 kts | 323° |
| 2026-04-07 22:20 | 50.25655 | 133.25184 | 33628 ft | 460 kts | 323° |
| 2026-04-07 22:21 | 50.30921 | 133.19493 | 33617 ft | 460 kts | 323° |
| 2026-04-07 22:21 | 50.36153 | 133.13827 | 33616 ft | 461 kts | 323° |
| 2026-04-07 22:22 | 50.40570 | 133.09033 | 33613 ft | 461 kts | 323° |
| 2026-04-07 22:22 | 50.46693 | 133.02366 | 33610 ft | 461 kts | 323° |
| 2026-04-07 22:23 | 50.51969 | 132.96604 | 33610 ft | 462 kts | 323° |
| 2026-04-07 22:23 | 50.56353 | 132.91805 | 33605 ft | 462 kts | 323° |
| 2026-04-07 22:24 | 50.61622 | 132.86022 | 33598 ft | 462 kts | 323° |
| 2026-04-07 22:24 | 50.66894 | 132.80220 | 33596 ft | 462 kts | 323° |
| 2026-04-07 22:25 | 50.72166 | 132.74401 | 33591 ft | 463 kts | 323° |
| 2026-04-07 22:25 | 50.77437 | 132.68567 | 33583 ft | 463 kts | 323° |
| 2026-04-07 22:26 | 50.82702 | 132.62723 | 33574 ft | 463 kts | 323° |
| 2026-04-07 22:26 | 50.87968 | 132.56861 | 33570 ft | 463 kts | 323° |
| 2026-04-07 22:27 | 50.93241 | 132.50976 | 33566 ft | 463 kts | 323° |
| 2026-04-07 22:27 | 50.98495 | 132.45095 | 33561 ft | 463 kts | 323° |
| 2026-04-07 22:28 | 51.03761 | 132.39185 | 33560 ft | 463 kts | 323° |
| 2026-04-07 22:28 | 51.09013 | 132.33272 | 33560 ft | 463 kts | 323° |
| 2026-04-07 22:29 | 51.14265 | 132.27343 | 33556 ft | 463 kts | 323° |
| 2026-04-07 22:29 | 51.19518 | 132.21397 | 33553 ft | 463 kts | 323° |
| 2026-04-07 22:30 | 51.24667 | 132.15252 | 33552 ft | 462 kts | 321° |
| 2026-04-07 22:30 | 51.29728 | 132.08915 | 33552 ft | 462 kts | 321° |
| 2026-04-07 22:31 | 51.34765 | 132.02622 | 33550 ft | 462 kts | 321° |
| 2026-04-07 22:31 | 51.39843 | 131.96318 | 33554 ft | 462 kts | 322° |
| 2026-04-07 22:32 | 51.42382 | 131.93176 | 33390 ft | 461 kts | 320° |
| 2026-04-07 22:32 | 51.44913 | 131.90047 | 33535 ft | 460 kts | 320° |
| 2026-04-07 22:32 | 51.49952 | 131.83780 | 33549 ft | 457 kts | 320° |
| 2026-04-07 22:33 | 51.54963 | 131.77521 | 33543 ft | 457 kts | 319° |
| 2026-04-07 22:33 | 51.59980 | 131.71237 | 33543 ft | 457 kts | 319° |
| 2026-04-07 22:34 | 51.65000 | 131.64938 | 33537 ft | 457 kts | 319° |
| 2026-04-07 22:34 | 51.70009 | 131.58634 | 33534 ft | 457 kts | 319° |
| 2026-04-07 22:35 | 51.75025 | 131.52302 | 33528 ft | 458 kts | 319° |
| 2026-04-07 22:35 | 51.80038 | 131.45958 | 33530 ft | 458 kts | 319° |
| 2026-04-07 22:36 | 51.85051 | 131.39602 | 33524 ft | 458 kts | 319° |
| 2026-04-07 22:36 | 51.90064 | 131.33210 | 33510 ft | 458 kts | 319° |
| 2026-04-07 22:37 | 51.95070 | 131.26812 | 33508 ft | 459 kts | 319° |
| 2026-04-07 22:37 | 52.00084 | 131.20388 | 33510 ft | 459 kts | 319° |
| 2026-04-07 22:38 | 52.05094 | 131.13952 | 33505 ft | 459 kts | 319° |
| 2026-04-07 22:38 | 52.10097 | 131.07517 | 33498 ft | 459 kts | 319° |
| 2026-04-07 22:39 | 52.15107 | 131.01037 | 33499 ft | 460 kts | 319° |
| 2026-04-07 22:39 | 52.20110 | 130.94541 | 33497 ft | 460 kts | 319° |
| 2026-04-07 22:40 | 52.25111 | 130.88031 | 33494 ft | 460 kts | 319° |
| 2026-04-07 22:40 | 52.30084 | 130.81544 | 33493 ft | 460 kts | 319° |
| 2026-04-07 22:41 | 52.35111 | 130.74966 | 33493 ft | 460 kts | 319° |
| 2026-04-07 22:41 | 52.40111 | 130.68404 | 33491 ft | 461 kts | 319° |
| 2026-04-07 22:42 | 52.45076 | 130.61869 | 33490 ft | 461 kts | 319° |
| 2026-04-07 22:42 | 52.50075 | 130.55271 | 33488 ft | 461 kts | 319° |
| 2026-04-07 22:43 | 52.55066 | 130.48661 | 33489 ft | 461 kts | 319° |
| 2026-04-07 22:43 | 52.60055 | 130.42035 | 33485 ft | 461 kts | 318° |
| 2026-04-07 22:44 | 52.65043 | 130.35389 | 33480 ft | 461 kts | 318° |
| 2026-04-07 22:44 | 52.70025 | 130.28732 | 33484 ft | 461 kts | 318° |
| 2026-04-07 22:45 | 52.75015 | 130.22043 | 33473 ft | 462 kts | 318° |
| 2026-04-07 22:45 | 52.79993 | 130.15351 | 33471 ft | 462 kts | 318° |
| 2026-04-07 22:46 | 52.84972 | 130.08637 | 33472 ft | 462 kts | 318° |
| 2026-04-07 22:46 | 52.89951 | 130.01903 | 33467 ft | 462 kts | 318° |
| 2026-04-07 22:47 | 52.94927 | 129.95152 | 33474 ft | 462 kts | 318° |
| 2026-04-07 22:47 | 52.99907 | 129.88381 | 33467 ft | 463 kts | 318° |
| 2026-04-07 22:48 | 53.04874 | 129.81587 | 33462 ft | 463 kts | 318° |
| 2026-04-07 22:48 | 53.09833 | 129.74784 | 33465 ft | 463 kts | 318° |
| 2026-04-07 22:49 | 53.14798 | 129.67956 | 33460 ft | 463 kts | 317° |
| 2026-04-07 22:49 | 53.19732 | 129.61152 | 33458 ft | 463 kts | 317° |
| 2026-04-07 22:50 | 53.24693 | 129.54288 | 33456 ft | 464 kts | 317° |
| 2026-04-07 22:50 | 53.29657 | 129.47399 | 33459 ft | 464 kts | 317° |
| 2026-04-07 22:51 | 53.34617 | 129.40495 | 33454 ft | 464 kts | 317° |
| 2026-04-07 22:51 | 53.39571 | 129.33577 | 33452 ft | 464 kts | 317° |
| 2026-04-07 22:52 | 53.44529 | 129.26633 | 33449 ft | 464 kts | 317° |
| 2026-04-07 22:52 | 53.49487 | 129.19666 | 33448 ft | 464 kts | 317° |
| 2026-04-07 22:53 | 53.54438 | 129.12693 | 33445 ft | 465 kts | 317° |
| 2026-04-07 22:53 | 53.59387 | 129.05698 | 33442 ft | 465 kts | 317° |
| 2026-04-07 22:54 | 53.64335 | 128.98668 | 33439 ft | 465 kts | 317° |
| 2026-04-07 22:54 | 53.69281 | 128.91623 | 33441 ft | 465 kts | 317° |
| 2026-04-07 22:55 | 53.74220 | 128.84569 | 33443 ft | 465 kts | 317° |
| 2026-04-07 22:55 | 53.79163 | 128.77489 | 33439 ft | 465 kts | 317° |
| 2026-04-07 22:56 | 53.84094 | 128.70401 | 33438 ft | 465 kts | 316° |
| 2026-04-07 22:56 | 53.88992 | 128.63339 | 33436 ft | 466 kts | 316° |
| 2026-04-07 22:57 | 53.93928 | 128.56199 | 33439 ft | 466 kts | 316° |
| 2026-04-07 22:57 | 53.98859 | 128.49043 | 33438 ft | 466 kts | 316° |
| 2026-04-07 22:58 | 54.03818 | 128.41825 | 33436 ft | 466 kts | 316° |
| 2026-04-07 22:58 | 54.08715 | 128.34675 | 33437 ft | 467 kts | 316° |
| 2026-04-07 22:59 | 54.13643 | 128.27475 | 33436 ft | 467 kts | 316° |
| 2026-04-07 22:59 | 54.18565 | 128.20251 | 33434 ft | 467 kts | 316° |
| 2026-04-07 23:00 | 54.23482 | 128.13011 | 33430 ft | 467 kts | 316° |
| 2026-04-07 23:00 | 54.28400 | 128.05750 | 33428 ft | 467 kts | 316° |
| 2026-04-07 23:01 | 54.33312 | 127.98471 | 33422 ft | 467 kts | 316° |
| 2026-04-07 23:02 | 54.40674 | 127.87521 | 33419 ft | 467 kts | 316° |
| 2026-04-07 23:02 | 54.45577 | 127.80198 | 33438 ft | 467 kts | 316° |
| 2026-04-07 23:03 | 54.50485 | 127.72842 | 33422 ft | 467 kts | 316° |
| 2026-04-07 23:03 | 54.55381 | 127.65481 | 33427 ft | 468 kts | 315° |
| 2026-04-07 23:04 | 54.60274 | 127.58099 | 33426 ft | 468 kts | 315° |
| 2026-04-07 23:04 | 54.65167 | 127.50693 | 33425 ft | 468 kts | 315° |
| 2026-04-07 23:05 | 54.70057 | 127.43267 | 33426 ft | 468 kts | 315° |
| 2026-04-07 23:05 | 54.74941 | 127.35824 | 33426 ft | 468 kts | 315° |
| 2026-04-07 23:06 | 54.79827 | 127.28355 | 33422 ft | 469 kts | 315° |
| 2026-04-07 23:06 | 54.84757 | 127.20930 | 33422 ft | 470 kts | 316° |
| 2026-04-07 23:07 | 54.89777 | 127.13650 | 33428 ft | 470 kts | 317° |
| 2026-04-07 23:07 | 54.94800 | 127.06357 | 33430 ft | 471 kts | 316° |
| 2026-04-07 23:08 | 54.99812 | 126.99011 | 33428 ft | 471 kts | 316° |
| 2026-04-07 23:08 | 55.04816 | 126.91626 | 33439 ft | 472 kts | 316° |
| 2026-04-07 23:09 | 55.09825 | 126.84204 | 33435 ft | 472 kts | 316° |
| 2026-04-07 23:09 | 55.14799 | 126.76809 | 33444 ft | 473 kts | 316° |
| 2026-04-07 23:10 | 55.19804 | 126.69345 | 33444 ft | 474 kts | 316° |
| 2026-04-07 23:10 | 55.24816 | 126.61847 | 33436 ft | 474 kts | 316° |
| 2026-04-07 23:11 | 55.29830 | 126.54319 | 33439 ft | 474 kts | 316° |
| 2026-04-07 23:11 | 55.34838 | 126.46777 | 33438 ft | 474 kts | 316° |
| 2026-04-07 23:12 | 55.39026 | 126.40431 | 33438 ft | 474 kts | 315° |
| 2026-04-07 23:12 | 55.43984 | 126.32889 | 33431 ft | 474 kts | 315° |
| 2026-04-07 23:13 | 55.49006 | 126.25229 | 33442 ft | 474 kts | 315° |
| 2026-04-07 23:13 | 55.53965 | 126.17639 | 33436 ft | 475 kts | 315° |
| 2026-04-07 23:14 | 55.58982 | 126.09937 | 33432 ft | 475 kts | 315° |
| 2026-04-07 23:14 | 55.63937 | 126.02303 | 33435 ft | 475 kts | 315° |
| 2026-04-07 23:15 | 55.68922 | 125.94594 | 33438 ft | 476 kts | 315° |
| 2026-04-07 23:15 | 55.73902 | 125.86867 | 33438 ft | 476 kts | 315° |
| 2026-04-07 23:16 | 55.78885 | 125.79107 | 33441 ft | 477 kts | 315° |
| 2026-04-07 23:16 | 55.83871 | 125.71317 | 33448 ft | 477 kts | 315° |
| 2026-04-07 23:17 | 55.88850 | 125.63507 | 33452 ft | 477 kts | 315° |
| 2026-04-07 23:17 | 55.93832 | 125.55665 | 33458 ft | 478 kts | 315° |
| 2026-04-07 23:18 | 55.98815 | 125.47796 | 33462 ft | 478 kts | 315° |
| 2026-04-07 23:18 | 56.03800 | 125.39896 | 33473 ft | 478 kts | 315° |
| 2026-04-07 23:19 | 56.08773 | 125.31996 | 33478 ft | 478 kts | 315° |
| 2026-04-07 23:19 | 56.13744 | 125.24071 | 33487 ft | 479 kts | 315° |
| 2026-04-07 23:20 | 56.18716 | 125.16109 | 33493 ft | 479 kts | 315° |
| 2026-04-07 23:20 | 56.23674 | 125.08144 | 33498 ft | 479 kts | 315° |
| 2026-04-07 23:21 | 56.28636 | 125.00146 | 33504 ft | 479 kts | 315° |
| 2026-04-07 23:21 | 56.33594 | 124.92127 | 33511 ft | 479 kts | 315° |
| 2026-04-07 23:22 | 56.38553 | 124.84078 | 33515 ft | 479 kts | 315° |
| 2026-04-07 23:22 | 56.43505 | 124.76014 | 33525 ft | 480 kts | 315° |
| 2026-04-07 23:23 | 56.48458 | 124.67920 | 33534 ft | 480 kts | 314° |
| 2026-04-07 23:23 | 56.53420 | 124.59782 | 33529 ft | 481 kts | 314° |
| 2026-04-07 23:24 | 56.58375 | 124.51626 | 33528 ft | 482 kts | 315° |
| 2026-04-07 23:24 | 56.63334 | 124.43434 | 33541 ft | 482 kts | 315° |
| 2026-04-07 23:25 | 56.68265 | 124.35256 | 33548 ft | 483 kts | 314° |
| 2026-04-07 23:25 | 56.73256 | 124.26949 | 33551 ft | 484 kts | 314° |
| 2026-04-07 23:26 | 56.78184 | 124.18717 | 33556 ft | 484 kts | 314° |
| 2026-04-07 23:26 | 56.83146 | 124.10395 | 33566 ft | 485 kts | 314° |
| 2026-04-07 23:27 | 56.88104 | 124.02049 | 33566 ft | 485 kts | 314° |
| 2026-04-07 23:27 | 56.93060 | 123.93677 | 33574 ft | 485 kts | 314° |
| 2026-04-07 23:28 | 56.98019 | 123.85267 | 33578 ft | 486 kts | 314° |
| 2026-04-07 23:28 | 57.02977 | 123.76826 | 33583 ft | 486 kts | 314° |
| 2026-04-07 23:29 | 57.07934 | 123.68360 | 33584 ft | 487 kts | 314° |
| 2026-04-07 23:29 | 57.12889 | 123.59845 | 33584 ft | 488 kts | 314° |
| 2026-04-07 23:30 | 57.17839 | 123.51295 | 33589 ft | 488 kts | 314° |
| 2026-04-07 23:30 | 57.22792 | 123.42707 | 33592 ft | 489 kts | 314° |
| 2026-04-07 23:31 | 57.27736 | 123.34100 | 33592 ft | 489 kts | 314° |
| 2026-04-07 23:31 | 57.32680 | 123.25463 | 33592 ft | 489 kts | 314° |
| 2026-04-07 23:32 | 57.37624 | 123.16798 | 33594 ft | 489 kts | 314° |
| 2026-04-07 23:32 | 57.42553 | 123.08124 | 33597 ft | 489 kts | 314° |
| 2026-04-07 23:33 | 57.47490 | 122.99402 | 33601 ft | 489 kts | 314° |
| 2026-04-07 23:33 | 57.52411 | 122.90674 | 33600 ft | 489 kts | 313° |
| 2026-04-07 23:34 | 57.57295 | 122.81977 | 33604 ft | 489 kts | 313° |
| 2026-04-07 23:34 | 57.62204 | 122.73202 | 33607 ft | 489 kts | 313° |
| 2026-04-07 23:35 | 57.67108 | 122.64403 | 33609 ft | 489 kts | 313° |
| 2026-04-07 23:35 | 57.72001 | 122.55587 | 33619 ft | 489 kts | 313° |
| 2026-04-07 23:36 | 57.76894 | 122.46736 | 33608 ft | 489 kts | 313° |
| 2026-04-07 23:36 | 57.81784 | 122.37854 | 33609 ft | 489 kts | 313° |
| 2026-04-07 23:37 | 57.86664 | 122.28956 | 33617 ft | 489 kts | 313° |
| 2026-04-07 23:37 | 57.91545 | 122.20022 | 33619 ft | 490 kts | 313° |
| 2026-04-07 23:38 | 57.96418 | 122.11067 | 33626 ft | 490 kts | 313° |
| 2026-04-07 23:38 | 58.01291 | 122.02074 | 33623 ft | 490 kts | 313° |
| 2026-04-07 23:39 | 58.06153 | 121.93066 | 33630 ft | 490 kts | 313° |
| 2026-04-07 23:39 | 58.11017 | 121.84017 | 33624 ft | 491 kts | 313° |
| 2026-04-07 23:40 | 58.15879 | 121.74936 | 33624 ft | 491 kts | 313° |
| 2026-04-07 23:40 | 58.20736 | 121.65827 | 33627 ft | 492 kts | 313° |
| 2026-04-07 23:41 | 58.25588 | 121.56691 | 33627 ft | 492 kts | 313° |
| 2026-04-07 23:41 | 58.30442 | 121.47515 | 33625 ft | 492 kts | 313° |
| 2026-04-07 23:42 | 58.35252 | 121.38383 | 33626 ft | 492 kts | 313° |
| 2026-04-07 23:42 | 58.40091 | 121.29159 | 33628 ft | 492 kts | 313° |
| 2026-04-07 23:43 | 58.44924 | 121.19907 | 33626 ft | 492 kts | 313° |
| 2026-04-07 23:43 | 58.49746 | 121.10636 | 33628 ft | 492 kts | 313° |
| 2026-04-07 23:44 | 58.54575 | 121.01319 | 33626 ft | 492 kts | 313° |
| 2026-04-07 23:44 | 58.59393 | 120.91980 | 33623 ft | 493 kts | 313° |
| 2026-04-07 23:45 | 58.64186 | 120.82581 | 33620 ft | 492 kts | 310° |
| 2026-04-07 23:45 | 58.68459 | 120.72348 | 33628 ft | 491 kts | 306° |
| 2026-04-07 23:46 | 58.72586 | 120.61866 | 33626 ft | 491 kts | 305° |
| 2026-04-07 23:46 | 58.76674 | 120.51332 | 33622 ft | 491 kts | 305° |
| 2026-04-07 23:47 | 58.80764 | 120.40771 | 33625 ft | 492 kts | 305° |
| 2026-04-07 23:47 | 58.84856 | 120.30175 | 33628 ft | 492 kts | 305° |
| 2026-04-07 23:48 | 58.88937 | 120.19568 | 33623 ft | 492 kts | 305° |
| 2026-04-07 23:48 | 58.93014 | 120.08924 | 33625 ft | 492 kts | 305° |
| 2026-04-07 23:49 | 58.97080 | 119.98258 | 33628 ft | 492 kts | 305° |
| 2026-04-07 23:49 | 59.01143 | 119.87560 | 33624 ft | 492 kts | 305° |
| 2026-04-07 23:50 | 59.05194 | 119.76841 | 33626 ft | 492 kts | 305° |
| 2026-04-07 23:50 | 59.09237 | 119.66097 | 33628 ft | 492 kts | 304° |
| 2026-04-07 23:51 | 59.13271 | 119.55330 | 33629 ft | 493 kts | 304° |
| 2026-04-07 23:51 | 59.17285 | 119.44524 | 33627 ft | 493 kts | 304° |
| 2026-04-07 23:52 | 59.21291 | 119.33675 | 33628 ft | 493 kts | 304° |
| 2026-04-07 23:52 | 59.25291 | 119.22803 | 33625 ft | 493 kts | 304° |
| 2026-04-07 23:53 | 59.29279 | 119.11920 | 33625 ft | 493 kts | 304° |
| 2026-04-07 23:53 | 59.33263 | 119.01002 | 33624 ft | 492 kts | 304° |
| 2026-04-07 23:54 | 59.37230 | 118.90078 | 33624 ft | 492 kts | 304° |
| 2026-04-07 23:54 | 59.41182 | 118.79137 | 33625 ft | 491 kts | 304° |
| 2026-04-07 23:55 | 59.45122 | 118.68181 | 33622 ft | 491 kts | 304° |
| 2026-04-07 23:55 | 59.49031 | 118.57267 | 33620 ft | 491 kts | 304° |
| 2026-04-07 23:56 | 59.52946 | 118.46279 | 33621 ft | 490 kts | 304° |
| 2026-04-07 23:56 | 59.56855 | 118.35263 | 33622 ft | 490 kts | 304° |
| 2026-04-07 23:57 | 59.60744 | 118.24247 | 33619 ft | 490 kts | 303° |
| 2026-04-07 23:57 | 59.63971 | 118.15067 | 33623 ft | 489 kts | 303° |
| 2026-04-07 23:58 | 59.68501 | 118.02117 | 33616 ft | 489 kts | 303° |
| 2026-04-07 23:58 | 59.72361 | 117.91032 | 33620 ft | 489 kts | 303° |
| 2026-04-07 23:59 | 59.76212 | 117.79919 | 33622 ft | 489 kts | 303° |
| 2026-04-07 23:59 | 59.79406 | 117.70660 | 33620 ft | 489 kts | 303° |
| 2026-04-08 00:00 | 59.83242 | 117.59495 | 33620 ft | 489 kts | 303° |
| 2026-04-08 00:00 | 59.87064 | 117.48308 | 33619 ft | 489 kts | 303° |
| 2026-04-08 00:01 | 59.90877 | 117.37094 | 33616 ft | 489 kts | 303° |
| 2026-04-08 00:01 | 59.94651 | 117.25793 | 33610 ft | 489 kts | 302° |
| 2026-04-08 00:02 | 59.98397 | 117.14469 | 33618 ft | 489 kts | 302° |
| 2026-04-08 00:02 | 60.02135 | 117.03140 | 33618 ft | 488 kts | 302° |
| 2026-04-08 00:03 | 60.05872 | 116.91778 | 33615 ft | 488 kts | 302° |
| 2026-04-08 00:03 | 60.11427 | 116.74794 | 33614 ft | 488 kts | 302° |
| 2026-04-08 00:04 | 60.15133 | 116.63390 | 33616 ft | 488 kts | 302° |
| 2026-04-08 00:04 | 60.18834 | 116.51947 | 33613 ft | 488 kts | 302° |
| 2026-04-08 00:05 | 60.22525 | 116.40479 | 33613 ft | 488 kts | 302° |
| 2026-04-08 00:05 | 60.26205 | 116.28986 | 33609 ft | 488 kts | 302° |
| 2026-04-08 00:06 | 60.29875 | 116.17467 | 33612 ft | 488 kts | 302° |
| 2026-04-08 00:06 | 60.33533 | 116.05932 | 33610 ft | 488 kts | 302° |
| 2026-04-08 00:07 | 60.37186 | 115.94362 | 33611 ft | 488 kts | 302° |
| 2026-04-08 00:07 | 60.40821 | 115.82769 | 33611 ft | 488 kts | 302° |
| 2026-04-08 00:08 | 60.44445 | 115.71144 | 33617 ft | 488 kts | 302° |
| 2026-04-08 00:08 | 60.48056 | 115.59506 | 33610 ft | 488 kts | 302° |
| 2026-04-08 00:09 | 60.51662 | 115.47833 | 33610 ft | 488 kts | 302° |
| 2026-04-08 00:09 | 60.55254 | 115.36141 | 33603 ft | 488 kts | 302° |
| 2026-04-08 00:10 | 60.58839 | 115.24417 | 33606 ft | 488 kts | 301° |
| 2026-04-08 00:10 | 60.62407 | 115.12688 | 33593 ft | 488 kts | 301° |
| 2026-04-08 00:11 | 60.65969 | 115.00919 | 33592 ft | 488 kts | 301° |
| 2026-04-08 00:11 | 60.69521 | 114.89122 | 33589 ft | 487 kts | 301° |
| 2026-04-08 00:12 | 60.73054 | 114.77419 | 33583 ft | 488 kts | 302° |
| 2026-04-08 00:12 | 60.73679 | 114.75451 | 33585 ft | 488 kts | 303° |